createdAt,value
2023-01-21T00:00:29.901Z,50.60
2023-01-21T00:01:02.358Z,46.90
2023-01-21T00:01:34.813Z,42.50
2023-01-21T00:02:07.323Z,51.10
2023-01-21T00:02:39.743Z,47.40
2023-01-21T00:03:12.254Z,45.40
2023-01-21T00:03:44.755Z,49.90
2023-01-21T00:04:17.209Z,46.00
2023-01-21T00:04:49.664Z,41.90
2023-01-21T00:05:22.160Z,43.80
2023-01-21T00:05:54.608Z,45.80
2023-01-21T00:06:27.046Z,42.30
2023-01-21T00:06:59.463Z,42.50
2023-01-21T00:07:31.907Z,43.00
2023-01-21T00:08:04.368Z,40.90
2023-01-21T00:08:36.916Z,38.90
2023-01-21T00:09:09.328Z,39.70
2023-01-21T00:09:41.766Z,49.20
2023-01-21T00:10:14.605Z,49.30
2023-01-21T00:10:46.729Z,43.40
2023-01-21T00:11:19.163Z,42.50
2023-01-21T00:11:51.745Z,46.90
2023-01-21T00:12:24.174Z,44.90
2023-01-21T00:12:56.604Z,40.50
2023-01-21T00:13:29.230Z,41.60
2023-01-21T00:14:01.773Z,45.10
2023-01-21T00:14:34.245Z,50.30
2023-01-21T00:15:06.823Z,51.60
2023-01-21T00:15:39.440Z,44.20
2023-01-21T00:16:11.981Z,41.10
2023-01-21T00:16:44.403Z,47.60
2023-01-21T00:17:16.892Z,49.00
2023-01-21T00:17:49.357Z,43.90
2023-01-21T00:18:21.808Z,42.90
2023-01-21T00:18:54.311Z,48.60
2023-01-21T00:19:26.826Z,48.30
2023-01-21T00:19:59.359Z,50.50
2023-01-21T00:20:31.826Z,48.30
2023-01-21T00:21:04.288Z,44.20
2023-01-21T00:21:36.784Z,48.30
2023-01-21T00:22:09.245Z,49.50
2023-01-21T00:22:41.755Z,44.90
2023-01-21T00:23:14.199Z,47.40
2023-01-21T00:23:46.702Z,44.50
2023-01-21T00:24:19.171Z,47.70
2023-01-21T00:24:51.619Z,49.40
2023-01-21T00:25:24.093Z,44.60
2023-01-21T00:25:56.640Z,47.60
2023-01-21T00:26:29.132Z,46.50
2023-01-21T00:27:01.585Z,38.80
2023-01-21T00:27:34.091Z,41.60
2023-01-21T00:28:06.579Z,40.40
2023-01-21T00:28:39.085Z,41.90
2023-01-21T00:29:11.563Z,41.00
2023-01-21T00:29:44.126Z,42.30
2023-01-21T00:30:16.867Z,47.90
2023-01-21T00:30:51.417Z,53.50
2023-01-21T00:31:21.566Z,54.90
2023-01-21T00:31:53.982Z,47.50
2023-01-21T00:32:26.352Z,43.90
2023-01-21T00:32:58.805Z,52.60
2023-01-21T00:33:31.247Z,47.30
2023-01-21T00:34:03.691Z,46.40
2023-01-21T00:34:36.100Z,52.30
2023-01-21T00:35:08.599Z,46.20
2023-01-21T00:35:41.101Z,39.90
2023-01-21T00:36:13.573Z,42.60
2023-01-21T00:36:46.173Z,43.50
2023-01-21T00:37:18.712Z,46.50
2023-01-21T00:37:51.194Z,47.70
2023-01-21T00:38:23.714Z,43.10
2023-01-21T00:38:56.154Z,39.40
2023-01-21T00:39:28.614Z,43.20
2023-01-21T00:40:01.107Z,47.50
2023-01-21T00:40:33.744Z,43.50
2023-01-21T00:41:06.264Z,47.20
2023-01-21T00:41:38.740Z,48.70
2023-01-21T00:42:11.231Z,45.90
2023-01-21T00:42:43.725Z,48.60
2023-01-21T00:43:16.216Z,47.80
2023-01-21T00:43:48.716Z,43.80
2023-01-21T00:44:21.284Z,49.30
2023-01-21T00:44:53.922Z,49.00
2023-01-21T00:45:27.332Z,48.20
2023-01-21T00:45:59.943Z,47.00
2023-01-21T00:46:32.401Z,44.30
2023-01-21T00:47:04.876Z,49.20
2023-01-21T00:47:37.422Z,59.20
2023-01-21T00:48:09.865Z,53.80
2023-01-21T00:48:42.353Z,48.60
2023-01-21T00:49:14.864Z,45.10
2023-01-21T00:49:47.358Z,38.60
2023-01-21T00:50:19.826Z,41.50
2023-01-21T00:50:52.333Z,48.60
2023-01-21T00:51:24.741Z,49.90
2023-01-21T00:51:57.201Z,44.30
2023-01-21T00:52:29.702Z,43.30
2023-01-21T00:53:02.158Z,42.70
2023-01-21T00:53:34.613Z,48.30
2023-01-21T00:54:07.103Z,49.00
2023-01-21T00:54:39.601Z,47.20
2023-01-21T00:55:12.124Z,48.60
2023-01-21T00:55:44.629Z,48.20
2023-01-21T00:56:17.121Z,42.80
2023-01-21T00:56:49.553Z,44.30
2023-01-21T00:57:22.030Z,50.20
2023-01-21T00:57:54.516Z,49.90
2023-01-21T00:58:26.964Z,51.60
2023-01-21T00:58:59.423Z,44.50
2023-01-21T00:59:31.930Z,44.80
2023-01-21T01:00:04.505Z,45.20
2023-01-21T01:00:36.951Z,47.50
2023-01-21T01:01:09.482Z,45.90
2023-01-21T01:01:41.967Z,43.30
2023-01-21T01:02:14.456Z,43.70
2023-01-21T01:02:47.026Z,46.20
2023-01-21T01:03:19.460Z,41.70
2023-01-21T01:03:51.971Z,46.30
2023-01-21T01:04:24.447Z,47.20
2023-01-21T01:04:56.920Z,50.20
2023-01-21T01:05:29.427Z,53.40
2023-01-21T01:06:01.936Z,52.50
2023-01-21T01:06:34.463Z,53.20
2023-01-21T01:07:06.945Z,50.60
2023-01-21T01:07:39.394Z,55.80
2023-01-21T01:08:11.834Z,52.80
2023-01-21T01:08:44.395Z,54.80
2023-01-21T01:09:16.859Z,49.70
2023-01-21T01:09:49.401Z,47.90
2023-01-21T01:10:21.888Z,48.30
2023-01-21T01:10:54.327Z,43.70
2023-01-21T01:11:26.844Z,47.40
2023-01-21T01:11:59.368Z,44.90
2023-01-21T01:12:31.867Z,45.00
2023-01-21T01:13:04.328Z,50.10
2023-01-21T01:13:36.793Z,54.10
2023-01-21T01:14:09.267Z,55.10
2023-01-21T01:14:41.851Z,46.10
2023-01-21T01:15:14.299Z,44.30
2023-01-21T01:15:46.758Z,46.50
2023-01-21T01:16:19.249Z,55.90
2023-01-21T01:16:51.653Z,54.50
2023-01-21T01:17:24.255Z,45.90
2023-01-21T01:17:56.770Z,50.70
2023-01-21T01:18:29.287Z,50.10
2023-01-21T01:19:01.809Z,49.80
2023-01-21T01:19:34.248Z,47.00
2023-01-21T01:20:06.741Z,52.40
2023-01-21T01:20:39.208Z,57.70
2023-01-21T01:21:11.651Z,53.20
2023-01-21T01:21:44.089Z,52.10
2023-01-21T01:22:16.523Z,53.90
2023-01-21T01:22:49.114Z,55.90
2023-01-21T01:23:21.552Z,55.30
2023-01-21T01:23:54.011Z,58.10
2023-01-21T01:24:26.461Z,51.60
2023-01-21T01:24:58.928Z,51.00
2023-01-21T01:25:31.516Z,54.30
2023-01-21T01:26:04.816Z,50.80
2023-01-21T01:26:37.236Z,47.10
2023-01-21T01:27:09.688Z,48.80
2023-01-21T01:27:42.145Z,54.00
2023-01-21T01:28:14.585Z,52.50
2023-01-21T01:28:47.043Z,49.40
2023-01-21T01:29:19.511Z,52.20
2023-01-21T01:29:51.964Z,55.70
2023-01-21T01:30:24.368Z,51.70
2023-01-21T01:30:57.061Z,54.30
2023-01-21T01:31:29.423Z,61.40
2023-01-21T01:32:01.877Z,60.00
2023-01-21T01:32:34.436Z,55.70
2023-01-21T01:33:06.900Z,53.80
2023-01-21T01:33:39.383Z,47.30
2023-01-21T01:34:11.792Z,51.80
2023-01-21T01:34:44.295Z,48.70
2023-01-21T01:35:16.775Z,47.60
2023-01-21T01:35:49.207Z,59.80
2023-01-21T01:36:21.634Z,61.40
2023-01-21T01:36:54.192Z,56.90
2023-01-21T01:37:26.728Z,58.30
2023-01-21T01:37:59.224Z,61.00
2023-01-21T01:38:31.718Z,53.80
2023-01-21T01:39:04.218Z,52.40
2023-01-21T01:39:36.669Z,52.10
2023-01-21T01:40:09.169Z,57.50
2023-01-21T01:40:41.661Z,52.50
2023-01-21T01:41:14.248Z,49.60
2023-01-21T01:41:46.773Z,53.50
2023-01-21T01:42:19.259Z,46.40
2023-01-21T01:42:51.835Z,49.50
2023-01-21T01:43:24.338Z,53.50
2023-01-21T01:43:56.844Z,56.40
2023-01-21T01:44:29.355Z,57.90
2023-01-21T01:45:01.854Z,52.30
2023-01-21T01:45:34.362Z,49.50
2023-01-21T01:46:06.894Z,51.80
2023-01-21T01:46:39.428Z,62.30
2023-01-21T01:47:11.832Z,67.40
2023-01-21T01:47:44.289Z,60.70
2023-01-21T01:48:16.780Z,58.20
2023-01-21T01:48:49.232Z,56.10
2023-01-21T01:49:21.730Z,58.50
2023-01-21T01:49:54.150Z,62.30
2023-01-21T01:50:26.633Z,59.70
2023-01-21T01:50:59.153Z,55.10
2023-01-21T01:51:31.675Z,56.20
2023-01-21T01:52:04.250Z,59.10
2023-01-21T01:52:36.724Z,58.60
2023-01-21T01:53:09.226Z,57.20
2023-01-21T01:53:41.716Z,53.70
2023-01-21T01:54:14.167Z,47.20
2023-01-21T01:54:46.696Z,45.90
2023-01-21T01:55:19.172Z,46.70
2023-01-21T01:55:51.734Z,48.80
2023-01-21T01:56:24.250Z,56.50
2023-01-21T01:56:56.689Z,60.10
2023-01-21T01:57:29.151Z,60.00
2023-01-21T01:58:01.645Z,62.10
2023-01-21T01:58:34.174Z,61.10
2023-01-21T01:59:06.701Z,60.80
2023-01-21T01:59:39.236Z,63.20
2023-01-21T02:00:11.740Z,62.20
2023-01-21T02:00:44.283Z,57.30
2023-01-21T02:01:17.046Z,50.50
2023-01-21T02:01:49.379Z,52.70
2023-01-21T02:02:21.841Z,62.90
2023-01-21T02:02:54.381Z,68.50
2023-01-21T02:03:26.804Z,65.30
2023-01-21T02:03:59.282Z,63.50
2023-01-21T02:04:31.833Z,69.20
2023-01-21T02:05:04.292Z,57.50
2023-01-21T02:05:36.930Z,54.00
2023-01-21T02:06:09.416Z,60.40
2023-01-21T02:06:41.857Z,67.50
2023-01-21T02:07:14.306Z,68.10
2023-01-21T02:07:46.830Z,59.70
2023-01-21T02:08:19.320Z,60.60
2023-01-21T02:08:51.840Z,70.50
2023-01-21T02:09:24.373Z,58.40
2023-01-21T02:09:56.839Z,51.00
2023-01-21T02:10:29.371Z,52.30
2023-01-21T02:11:01.838Z,57.70
2023-01-21T02:11:34.439Z,69.80
2023-01-21T02:12:06.927Z,61.80
2023-01-21T02:12:39.471Z,57.50
2023-01-21T02:13:11.979Z,62.20
2023-01-21T02:13:44.439Z,61.60
2023-01-21T02:14:16.873Z,66.40
2023-01-21T02:14:49.334Z,69.20
2023-01-21T02:15:21.775Z,68.60
2023-01-21T02:15:54.322Z,69.50
2023-01-21T02:16:26.777Z,78.80
2023-01-21T02:16:59.265Z,67.90
2023-01-21T02:17:31.751Z,60.10
2023-01-21T02:18:04.206Z,56.40
2023-01-21T02:18:36.731Z,67.70
2023-01-21T02:19:09.183Z,69.20
2023-01-21T02:19:41.702Z,70.20
2023-01-21T02:20:14.285Z,67.90
2023-01-21T02:20:46.602Z,69.40
2023-01-21T02:21:19.131Z,72.50
2023-01-21T02:21:51.643Z,77.50
2023-01-21T02:22:24.082Z,66.80
2023-01-21T02:22:56.593Z,62.00
2023-01-21T02:23:29.292Z,73.30
2023-01-21T02:24:02.725Z,82.90
2023-01-21T02:24:35.153Z,82.40
2023-01-21T02:25:07.633Z,82.60
2023-01-21T02:25:40.235Z,72.00
2023-01-21T02:26:12.778Z,69.60
2023-01-21T02:26:45.278Z,75.10
2023-01-21T02:27:17.796Z,74.80
2023-01-21T02:27:50.294Z,73.20
2023-01-21T02:28:22.774Z,67.20
2023-01-21T02:28:55.317Z,71.80
2023-01-21T02:29:27.807Z,70.60
2023-01-21T02:30:00.314Z,72.10
2023-01-21T02:30:32.884Z,77.90
2023-01-21T02:31:05.445Z,77.90
2023-01-21T02:31:37.926Z,76.60
2023-01-21T02:32:10.312Z,73.40
2023-01-21T02:32:42.795Z,75.00
2023-01-21T02:33:15.353Z,74.90
2023-01-21T02:33:47.771Z,73.60
2023-01-21T02:34:20.212Z,77.10
2023-01-21T02:34:52.665Z,75.60
2023-01-21T02:35:25.112Z,72.70
2023-01-21T02:35:57.576Z,75.10
2023-01-21T02:36:30.063Z,76.20
2023-01-21T02:37:02.565Z,83.40
2023-01-21T02:37:35.052Z,86.80
2023-01-21T02:38:07.485Z,84.00
2023-01-21T02:38:40.112Z,83.70
2023-01-21T02:39:12.597Z,78.60
2023-01-21T02:39:45.101Z,71.80
2023-01-21T02:40:18.102Z,73.00
2023-01-21T02:40:50.259Z,78.00
2023-01-21T02:41:22.758Z,76.20
2023-01-21T02:41:55.224Z,81.70
2023-01-21T02:42:27.696Z,84.60
2023-01-21T02:43:00.195Z,86.50
2023-01-21T02:43:32.690Z,86.80
2023-01-21T02:44:05.174Z,78.30
2023-01-21T02:44:37.685Z,64.00
2023-01-21T02:45:10.179Z,75.40
2023-01-21T02:45:42.683Z,77.40
2023-01-21T02:46:15.209Z,69.30
2023-01-21T02:46:47.699Z,70.20
2023-01-21T02:47:20.181Z,78.60
2023-01-21T02:47:52.668Z,80.40
2023-01-21T02:48:25.202Z,77.90
2023-01-21T02:48:57.649Z,74.70
2023-01-21T02:49:30.080Z,88.00
2023-01-21T02:50:02.716Z,84.90
2023-01-21T02:50:35.126Z,75.60
2023-01-21T02:51:07.603Z,77.50
2023-01-21T02:51:40.057Z,70.80
2023-01-21T02:52:12.540Z,79.20
2023-01-21T02:52:45.017Z,80.50
2023-01-21T02:53:17.535Z,75.30
2023-01-21T02:53:49.980Z,78.80
2023-01-21T02:54:22.470Z,81.30
2023-01-21T02:54:55.017Z,81.40
2023-01-21T02:55:27.473Z,69.60
2023-01-21T02:55:59.957Z,75.70
2023-01-21T02:56:32.454Z,81.40
2023-01-21T02:57:04.868Z,74.60
2023-01-21T02:57:37.370Z,70.90
2023-01-21T02:58:09.867Z,72.40
2023-01-21T02:58:42.349Z,68.50
2023-01-21T02:59:14.804Z,73.40
2023-01-21T02:59:47.398Z,78.50
2023-01-21T03:00:19.953Z,79.60
2023-01-21T03:00:52.473Z,79.10
2023-01-21T03:01:24.927Z,70.30
2023-01-21T03:01:57.454Z,69.80
2023-01-21T03:02:29.961Z,73.30
2023-01-21T03:03:02.514Z,81.10
2023-01-21T03:03:35.007Z,83.40
2023-01-21T03:04:07.495Z,77.50
2023-01-21T03:04:39.999Z,74.90
2023-01-21T03:05:12.500Z,69.40
2023-01-21T03:05:45.042Z,75.20
2023-01-21T03:06:17.555Z,74.40
2023-01-21T03:06:50.145Z,69.00
2023-01-21T03:07:22.659Z,71.10
2023-01-21T03:07:55.163Z,67.20
2023-01-21T03:08:27.674Z,72.00
2023-01-21T03:09:00.181Z,74.40
2023-01-21T03:09:32.667Z,71.80
2023-01-21T03:10:05.172Z,68.80
2023-01-21T03:10:37.755Z,71.40
2023-01-21T03:11:10.243Z,75.40
2023-01-21T03:11:42.826Z,66.60
2023-01-21T03:12:15.368Z,66.80
2023-01-21T03:12:48.022Z,71.40
2023-01-21T03:13:20.510Z,67.90
2023-01-21T03:13:52.966Z,69.20
2023-01-21T03:14:25.445Z,77.20
2023-01-21T03:14:57.906Z,81.30
2023-01-21T03:15:30.338Z,77.50
2023-01-21T03:16:02.888Z,78.60
2023-01-21T03:16:35.369Z,77.40
2023-01-21T03:17:07.860Z,75.50
2023-01-21T03:17:40.383Z,77.90
2023-01-21T03:18:12.885Z,81.00
2023-01-21T03:18:45.406Z,76.40
2023-01-21T03:19:17.827Z,76.30
2023-01-21T03:19:50.273Z,76.50
2023-01-21T03:20:22.698Z,67.50
2023-01-21T03:20:55.252Z,64.30
2023-01-21T03:21:27.707Z,67.90
2023-01-21T03:22:00.189Z,74.60
2023-01-21T03:22:32.671Z,82.50
2023-01-21T03:23:05.149Z,82.70
2023-01-21T03:23:37.604Z,72.80
2023-01-21T03:24:10.077Z,78.20
2023-01-21T03:24:42.524Z,84.50
2023-01-21T03:25:15.103Z,76.00
2023-01-21T03:25:47.650Z,79.90
2023-01-21T03:26:20.111Z,82.20
2023-01-21T03:26:52.590Z,79.60
2023-01-21T03:27:25.158Z,93.20
2023-01-21T03:27:57.603Z,88.20
2023-01-21T03:28:30.053Z,74.30
2023-01-21T03:29:02.503Z,79.40
2023-01-21T03:29:34.957Z,85.50
2023-01-21T03:30:07.381Z,82.00
2023-01-21T03:30:39.828Z,75.70
2023-01-21T03:31:12.534Z,73.40
2023-01-21T03:31:44.881Z,77.40
2023-01-21T03:32:17.268Z,77.00
2023-01-21T03:32:49.737Z,73.40
2023-01-21T03:33:22.193Z,68.70
2023-01-21T03:33:54.660Z,71.30
2023-01-21T03:34:27.119Z,77.70
2023-01-21T03:34:59.590Z,83.20
2023-01-21T03:35:32.118Z,78.10
2023-01-21T03:36:04.812Z,77.70
2023-01-21T03:36:37.386Z,73.70
2023-01-21T03:37:09.836Z,76.70
2023-01-21T03:37:42.337Z,79.60
2023-01-21T03:38:14.832Z,77.80
2023-01-21T03:38:47.466Z,67.20
2023-01-21T03:39:19.959Z,70.70
2023-01-21T03:39:52.376Z,76.10
2023-01-21T03:40:24.905Z,88.40
2023-01-21T03:40:57.390Z,79.50
2023-01-21T03:41:29.894Z,74.10
2023-01-21T03:42:02.458Z,73.70
2023-01-21T03:42:34.925Z,72.70
2023-01-21T03:43:07.372Z,75.20
2023-01-21T03:43:39.884Z,84.20
2023-01-21T03:44:12.380Z,85.20
2023-01-21T03:44:44.837Z,80.60
2023-01-21T03:45:17.342Z,87.10
2023-01-21T03:45:49.824Z,83.90
2023-01-21T03:46:22.262Z,77.60
2023-01-21T03:46:54.758Z,78.80
2023-01-21T03:47:27.274Z,71.40
2023-01-21T03:47:59.794Z,77.40
2023-01-21T03:48:32.262Z,80.90
2023-01-21T03:49:04.724Z,79.10
2023-01-21T03:49:37.224Z,73.60
2023-01-21T03:50:09.686Z,79.20
2023-01-21T03:50:42.119Z,81.00
2023-01-21T03:51:14.755Z,76.90
2023-01-21T03:51:47.240Z,70.90
2023-01-21T03:52:19.753Z,82.00
2023-01-21T03:52:52.208Z,93.90
2023-01-21T03:53:24.749Z,85.00
2023-01-21T03:53:57.237Z,74.30
2023-01-21T03:54:29.712Z,76.50
2023-01-21T03:55:02.255Z,71.90
2023-01-21T03:55:34.722Z,66.70
2023-01-21T03:56:07.193Z,78.40
2023-01-21T03:56:39.657Z,79.80
2023-01-21T03:57:12.141Z,80.40
2023-01-21T03:57:45.547Z,87.60
2023-01-21T03:58:17.987Z,76.80
2023-01-21T03:58:50.494Z,78.60
2023-01-21T03:59:23.004Z,79.20
2023-01-21T03:59:55.461Z,73.90
2023-01-21T04:00:27.978Z,75.60
2023-01-21T04:01:00.527Z,81.80
2023-01-21T04:01:32.995Z,82.40
2023-01-21T04:02:05.521Z,73.80
2023-01-21T04:02:37.965Z,86.20
2023-01-21T04:03:10.427Z,73.50
2023-01-21T04:03:42.959Z,60.10
2023-01-21T04:04:15.480Z,69.50
2023-01-21T04:04:47.972Z,70.50
2023-01-21T04:05:20.501Z,73.30
2023-01-21T04:05:53.024Z,78.60
2023-01-21T04:06:25.539Z,75.90
2023-01-21T04:06:58.055Z,89.90
2023-01-21T04:07:30.570Z,87.90
2023-01-21T04:08:03.096Z,87.00
2023-01-21T04:08:35.620Z,83.20
2023-01-21T04:09:08.140Z,79.10
2023-01-21T04:09:40.669Z,87.40
2023-01-21T04:10:13.195Z,78.60
2023-01-21T04:10:45.671Z,73.80
2023-01-21T04:11:18.175Z,71.60
2023-01-21T04:11:50.695Z,89.30
2023-01-21T04:12:23.256Z,92.40
2023-01-21T04:12:55.761Z,75.70
2023-01-21T04:13:28.310Z,76.90
2023-01-21T04:14:00.814Z,78.20
2023-01-21T04:14:33.247Z,82.50
2023-01-21T04:15:05.795Z,83.60
2023-01-21T04:15:38.408Z,71.90
2023-01-21T04:16:11.040Z,79.50
2023-01-21T04:16:43.525Z,81.80
2023-01-21T04:17:16.052Z,79.20
2023-01-21T04:17:48.521Z,67.40
2023-01-21T04:18:21.024Z,81.40
2023-01-21T04:18:53.539Z,88.70
2023-01-21T04:19:26.090Z,77.80
2023-01-21T04:19:58.547Z,79.00
2023-01-21T04:20:31.088Z,71.70
2023-01-21T04:21:03.580Z,73.80
2023-01-21T04:21:36.493Z,79.60
2023-01-21T04:22:08.951Z,77.60
2023-01-21T04:22:41.497Z,74.90
2023-01-21T04:23:14.024Z,93.90
2023-01-21T04:23:46.564Z,90.40
2023-01-21T04:24:19.100Z,86.20
2023-01-21T04:24:51.589Z,80.10
2023-01-21T04:25:24.005Z,81.80
2023-01-21T04:25:56.513Z,72.50
2023-01-21T04:26:29.040Z,78.10
2023-01-21T04:27:01.539Z,78.00
2023-01-21T04:27:34.109Z,73.50
2023-01-21T04:28:06.634Z,78.60
2023-01-21T04:28:39.183Z,95.90
2023-01-21T04:29:11.663Z,91.70
2023-01-21T04:29:44.183Z,84.10
2023-01-21T04:30:16.940Z,85.60
2023-01-21T04:30:49.249Z,82.90
2023-01-21T04:31:21.725Z,77.10
2023-01-21T04:31:54.379Z,71.50
2023-01-21T04:32:26.845Z,68.70
2023-01-21T04:32:59.338Z,82.00
2023-01-21T04:33:31.804Z,71.80
2023-01-21T04:34:04.320Z,71.50
2023-01-21T04:34:36.872Z,79.00
2023-01-21T04:35:09.311Z,76.10
2023-01-21T04:35:41.919Z,73.60
2023-01-21T04:36:14.434Z,78.00
2023-01-21T04:36:46.882Z,82.30
2023-01-21T04:37:19.374Z,74.70
2023-01-21T04:37:51.824Z,69.30
2023-01-21T04:38:24.282Z,71.90
2023-01-21T04:38:56.805Z,63.40
2023-01-21T04:39:29.308Z,57.60
2023-01-21T04:40:01.787Z,62.70
2023-01-21T04:40:34.264Z,70.20
2023-01-21T04:41:06.747Z,77.30
2023-01-21T04:41:39.174Z,78.20
2023-01-21T04:42:11.687Z,75.30
2023-01-21T04:42:44.155Z,78.70
2023-01-21T04:43:16.610Z,72.60
2023-01-21T04:43:49.105Z,61.10
2023-01-21T04:44:21.613Z,67.40
2023-01-21T04:44:54.117Z,72.10
2023-01-21T04:45:26.595Z,75.10
2023-01-21T04:45:59.185Z,68.80
2023-01-21T04:46:31.512Z,65.30
2023-01-21T04:47:04.034Z,71.70
2023-01-21T04:47:36.572Z,66.00
2023-01-21T04:48:09.113Z,65.20
2023-01-21T04:48:41.712Z,62.60
2023-01-21T04:49:14.224Z,67.90
2023-01-21T04:49:46.745Z,76.90
2023-01-21T04:50:19.323Z,74.20
2023-01-21T04:50:51.908Z,74.40
2023-01-21T04:51:24.339Z,77.20
2023-01-21T04:51:56.780Z,71.50
2023-01-21T04:52:29.221Z,64.60
2023-01-21T04:53:01.728Z,61.80
2023-01-21T04:53:34.211Z,62.40
2023-01-21T04:54:06.687Z,67.30
2023-01-21T04:54:39.290Z,72.80
2023-01-21T04:55:11.822Z,71.00
2023-01-21T04:55:44.243Z,72.30
2023-01-21T04:56:16.792Z,61.90
2023-01-21T04:56:49.251Z,63.60
2023-01-21T04:57:21.847Z,70.00
2023-01-21T04:57:54.400Z,68.60
2023-01-21T04:58:26.878Z,61.90
2023-01-21T04:58:59.302Z,68.10
2023-01-21T04:59:31.801Z,74.80
2023-01-21T06:17:33.530Z,89.80
2023-01-21T06:18:06.000Z,85.20
2023-01-21T06:18:38.466Z,80.70
2023-01-21T06:19:10.930Z,87.30
2023-01-21T06:19:43.397Z,91.00
2023-01-21T06:20:16.169Z,80.00
2023-01-21T06:20:48.384Z,80.30
2023-01-21T06:21:20.893Z,89.70
2023-01-21T06:21:53.379Z,86.80
2023-01-21T06:22:25.809Z,78.60
2023-01-21T06:22:58.322Z,76.70
2023-01-21T06:23:30.785Z,82.20
2023-01-21T06:24:04.225Z,78.90
2023-01-21T06:24:36.689Z,74.20
2023-01-21T06:25:09.162Z,81.40
2023-01-21T06:25:41.643Z,76.00
2023-01-21T06:26:14.124Z,78.80
2023-01-21T06:26:46.570Z,85.90
2023-01-21T06:27:19.027Z,82.40
2023-01-21T06:27:51.477Z,73.60
2023-01-21T06:28:23.930Z,74.50
2023-01-21T06:28:56.420Z,83.20
2023-01-21T06:29:28.897Z,93.10
2023-01-21T06:30:01.335Z,89.10
2023-01-21T06:30:33.818Z,85.70
2023-01-21T06:31:06.357Z,93.50
2023-01-21T06:31:38.806Z,93.30
2023-01-21T06:32:11.252Z,85.30
2023-01-21T06:32:43.666Z,89.30
2023-01-21T06:33:16.097Z,84.70
2023-01-21T06:33:48.564Z,80.80
2023-01-21T06:34:21.092Z,85.00
2023-01-21T06:34:53.529Z,86.60
2023-01-21T06:35:26.012Z,84.10
2023-01-21T06:35:58.473Z,87.70
2023-01-21T06:36:30.932Z,79.30
2023-01-21T06:37:03.392Z,77.90
2023-01-21T06:37:35.868Z,81.70
2023-01-21T06:38:08.316Z,81.00
2023-01-21T06:38:40.793Z,84.10
2023-01-21T06:39:13.253Z,83.40
2023-01-21T06:39:45.713Z,86.60
2023-01-21T06:40:18.521Z,90.70
2023-01-21T06:40:50.627Z,88.10
2023-01-21T06:41:23.081Z,77.30
2023-01-21T06:41:55.615Z,80.10
2023-01-21T06:42:28.075Z,72.50
2023-01-21T06:43:00.552Z,70.60
2023-01-21T06:43:33.063Z,80.60
2023-01-21T06:44:05.495Z,94.70
2023-01-21T06:44:37.940Z,105.30
2023-01-21T06:45:10.399Z,88.50
2023-01-21T06:45:42.895Z,75.40
2023-01-21T06:46:15.367Z,79.60
2023-01-21T06:47:00.128Z,83.90
2023-01-21T06:47:20.472Z,80.00
2023-01-21T06:47:53.003Z,92.10
2023-01-21T06:48:25.530Z,91.50
2023-01-21T06:48:57.988Z,96.40
2023-01-21T06:49:30.437Z,96.00
2023-01-21T06:50:02.908Z,89.20
2023-01-21T06:50:35.343Z,86.40
2023-01-21T06:51:07.891Z,89.70
2023-01-21T06:51:40.314Z,93.50
2023-01-21T06:52:12.768Z,82.30
2023-01-21T06:52:45.220Z,79.70
2023-01-21T06:53:17.687Z,83.90
2023-01-21T06:53:50.234Z,87.20
2023-01-21T06:54:22.700Z,92.60
2023-01-21T06:54:55.216Z,85.30
2023-01-21T06:55:27.693Z,77.60
2023-01-21T06:56:00.245Z,85.80
2023-01-21T06:56:32.715Z,86.20
2023-01-21T06:57:05.186Z,68.60
2023-01-21T06:57:37.641Z,71.00
2023-01-21T06:58:10.096Z,88.30
2023-01-21T06:58:42.573Z,91.30
2023-01-21T06:59:15.145Z,81.20
2023-01-21T06:59:47.585Z,82.60
2023-01-21T07:00:20.258Z,91.10
2023-01-21T07:00:52.532Z,89.60
2023-01-21T07:01:25.030Z,81.00
2023-01-21T07:01:57.601Z,87.10
2023-01-21T07:02:30.033Z,90.30
2023-01-21T07:03:02.452Z,79.50
2023-01-21T07:03:34.916Z,68.00
2023-01-21T07:04:07.393Z,77.00
2023-01-21T07:04:39.932Z,83.70
2023-01-21T07:05:12.356Z,82.30
2023-01-21T07:05:44.845Z,80.90
2023-01-21T07:06:17.439Z,79.40
2023-01-21T07:06:49.920Z,84.40
2023-01-21T07:07:22.362Z,82.20
2023-01-21T07:07:54.814Z,78.90
2023-01-21T07:08:27.302Z,81.90
2023-01-21T07:08:59.781Z,89.00
2023-01-21T07:09:32.323Z,79.40
2023-01-21T07:10:04.770Z,83.60
2023-01-21T07:10:37.432Z,93.30
2023-01-21T07:11:09.887Z,83.50
2023-01-21T07:11:42.361Z,80.90
2023-01-21T07:12:14.844Z,87.80
2023-01-21T07:12:47.333Z,86.30
2023-01-21T07:13:19.800Z,78.50
2023-01-21T07:13:52.287Z,75.40
2023-01-21T07:14:24.757Z,80.10
2023-01-21T07:14:57.239Z,74.60
2023-01-21T07:15:29.707Z,82.60
2023-01-21T07:16:02.310Z,84.30
2023-01-21T07:16:34.691Z,83.80
2023-01-21T07:17:07.146Z,94.70
2023-01-21T07:17:39.673Z,89.30
2023-01-21T07:18:12.136Z,74.70
2023-01-21T07:18:44.609Z,87.70
2023-01-21T07:19:17.076Z,92.50
2023-01-21T07:19:49.575Z,94.30
2023-01-21T07:20:22.032Z,93.90
2023-01-21T07:20:54.521Z,83.00
2023-01-21T07:21:27.026Z,89.00
2023-01-21T07:21:59.525Z,94.20
2023-01-21T07:22:32.019Z,89.20
2023-01-21T07:23:04.516Z,80.50
2023-01-21T07:23:36.966Z,70.70
2023-01-21T07:24:09.488Z,71.40
2023-01-21T07:24:41.936Z,84.10
2023-01-21T07:25:14.575Z,90.20
2023-01-21T07:25:46.958Z,89.50
2023-01-21T07:26:19.465Z,90.40
2023-01-21T07:26:51.942Z,84.20
2023-01-21T07:27:24.416Z,73.70
2023-01-21T07:27:56.922Z,77.10
2023-01-21T07:28:29.395Z,84.40
2023-01-21T07:29:02.085Z,80.10
2023-01-21T07:29:34.392Z,80.80
2023-01-21T07:30:06.952Z,92.80
2023-01-21T07:30:39.430Z,88.70
2023-01-21T07:31:12.009Z,84.40
2023-01-21T07:31:44.331Z,85.60
2023-01-21T07:32:16.772Z,89.80
2023-01-21T07:32:49.301Z,90.20
2023-01-21T07:33:21.777Z,83.60
2023-01-21T07:33:54.304Z,77.80
2023-01-21T07:34:26.745Z,79.40
2023-01-21T07:34:59.201Z,86.60
2023-01-21T07:35:31.677Z,82.60
2023-01-21T07:36:04.170Z,76.30
2023-01-21T07:36:36.641Z,77.90
2023-01-21T07:37:09.124Z,81.10
2023-01-21T07:37:41.654Z,88.80
2023-01-21T07:38:14.133Z,94.10
2023-01-21T07:38:46.647Z,89.50
2023-01-21T07:39:19.104Z,84.00
2023-01-21T07:39:52.583Z,85.40
2023-01-21T07:40:24.037Z,90.20
2023-01-21T07:40:56.502Z,85.90
2023-01-21T07:41:28.962Z,78.50
2023-01-21T07:42:01.415Z,80.50
2023-01-21T07:42:33.899Z,82.20
2023-01-21T07:43:06.396Z,77.90
2023-01-21T07:43:38.943Z,76.10
2023-01-21T07:44:11.406Z,76.10
2023-01-21T07:44:43.864Z,77.00
2023-01-21T07:45:16.599Z,84.60
2023-01-21T07:45:48.887Z,87.00
2023-01-21T07:46:21.474Z,85.20
2023-01-21T07:46:53.898Z,84.40
2023-01-21T07:47:26.409Z,91.90
2023-01-21T07:47:58.862Z,87.60
2023-01-21T07:48:31.380Z,82.60
2023-01-21T07:49:03.852Z,93.10
2023-01-21T07:49:36.335Z,101.00
2023-01-21T07:50:08.919Z,90.50
2023-01-21T07:50:41.256Z,73.90
2023-01-21T07:51:13.772Z,74.00
2023-01-21T07:54:54.982Z,77.30
2023-01-21T07:55:27.409Z,84.10
2023-01-21T07:55:59.823Z,87.50
2023-01-21T07:56:32.271Z,82.70
2023-01-21T07:57:04.680Z,84.20
2023-01-21T07:57:37.125Z,77.80
2023-01-21T07:58:09.590Z,71.10
2023-01-21T07:58:42.024Z,88.90
2023-01-21T07:59:14.475Z,93.20
2023-01-21T07:59:46.925Z,86.20
2023-01-21T08:00:19.364Z,88.40
2023-01-21T08:00:51.782Z,87.50
2023-01-21T08:01:25.404Z,93.20
2023-01-21T08:01:56.676Z,91.50
2023-01-21T08:02:29.109Z,82.40
2023-01-21T08:03:01.514Z,79.50
2023-01-21T08:03:33.921Z,78.50
2023-01-21T08:04:06.381Z,87.50
2023-01-21T08:04:38.816Z,79.80
2023-01-21T08:05:11.279Z,71.40
2023-01-21T08:05:43.716Z,81.60
2023-01-21T08:06:16.138Z,89.00
2023-01-21T08:06:48.666Z,84.50
2023-01-21T08:07:21.148Z,80.20
2023-01-21T08:07:53.644Z,82.00
2023-01-21T08:08:26.101Z,80.80
2023-01-21T08:09:00.984Z,81.50
2023-01-21T08:09:32.403Z,82.30
2023-01-21T08:10:05.239Z,72.20
2023-01-21T08:10:37.647Z,88.50
2023-01-21T08:11:10.116Z,86.80
2023-01-21T08:11:42.644Z,83.80
2023-01-21T08:12:15.115Z,81.50
2023-01-21T08:12:47.577Z,84.00
2023-01-21T08:13:20.099Z,84.10
2023-01-21T08:13:52.553Z,75.10
2023-01-21T08:14:25.033Z,79.60
2023-01-21T08:14:57.557Z,82.70
2023-01-21T08:15:30.027Z,81.50
2023-01-21T08:16:02.572Z,81.40
2023-01-21T08:16:34.998Z,81.20
2023-01-21T08:17:07.428Z,78.00
2023-01-21T08:17:39.895Z,72.40
2023-01-21T08:18:12.312Z,79.30
2023-01-21T08:18:44.798Z,86.50
2023-01-21T08:19:17.207Z,84.00